Pearl — PEARL — position and weather

sailwx.info

Track history (hours):
 
Tides and Currents Weather Stations Pressure Air Temp Water Temp Dewpoint Dewpoint Depression Visibility Wind Speed Wind Dir Waves Ship Positions

Pearl

Last reported at 2018-Jul-19 01:17 UTC. Time now 2018-Jul-23 09:53 UTC.
Position N 48°51' W 123°30'.

Length 38 m; draft 3.5 m.

Type: Pleasure craft. MMSI: 367639910.

Date/timePositionNaut miles runAvg speedWind from/ knotsBaromVisibWave heightAir tempDewpointWater temp
2018-Jul-19 01:17N 48°51' W 123°30'0 0.1
2018-Jul-18 23:27N 48°51' W 123°30'0 0.1
2018-Jul-18 22:59N 48°51' W 123°30'0 0.3
2018-Jul-18 22:29N 48°51' W 123°30'0 0.0
2018-Jul-18 20:07N 48°51' W 123°30'0 0.0
2018-Jul-18 09:27N 48°51' W 123°30'0 0.0
2018-Jul-18 05:02N 48°51' W 123°30'0 0.0
2018-Jul-18 04:53N 48°51' W 123°30'0 0.0
2018-Jul-18 03:32N 48°51' W 123°30'0 0.0
2018-Jul-18 01:37N 48°51' W 123°30'0 0.1
2018-Jul-18 01:27N 48°51' W 123°30'0 0.2
2018-Jul-18 00:57N 48°51' W 123°30'0 0.0
2018-Jul-18 00:29N 48°51' W 123°30'0 0.1
2018-Jul-17 23:17N 48°51' W 123°30'0 0.1
2018-Jul-17 22:47N 48°51' W 123°30'0 0.1
2018-Jul-17 22:16N 48°51' W 123°30'0 0.0
2018-Jul-17 21:47N 48°51' W 123°30'0 0.1
2018-Jul-17 20:22N 48°51' W 123°30'5 6.2
2018-Jul-17 19:32N 48°48' W 123°24'0 2.6
2018-Jul-17 19:30N 48°48' W 123°24'9 6.1
2018-Jul-17 18:02N 48°39' W 123°24'0 0.0
2018-Jul-17 17:51N 48°39' W 123°24'0 0.1
2018-Jul-17 17:24N 48°39' W 123°24'0 0.4
2018-Jul-17 16:52N 48°39' W 123°24'0 0.4
2018-Jul-17 16:19N 48°39' W 123°24'0 0.0
2018-Jul-17 15:21N 48°39' W 123°24'0 0.0
2018-Jul-17 14:57N 48°39' W 123°24'0 0.0
2018-Jul-17 09:17N 48°39' W 123°24'0 0.0
2018-Jul-17 08:57N 48°39' W 123°24'0 0.0
2018-Jul-17 05:02N 48°39' W 123°24'0 0.0
2018-Jul-17 04:52N 48°39' W 123°24'0 0.0
2018-Jul-17 03:23N 48°39' W 123°24'0 0.3
2018-Jul-17 03:00N 48°39' W 123°24'0 0.0
2018-Jul-17 02:28N 48°39' W 123°24'0 0.0
2018-Jul-17 00:12N 48°39' W 123°24'0 0.1
2018-Jul-16 22:49N 48°39' W 123°24'0 0.0
2018-Jul-16 22:21N 48°39' W 123°24'0 0.3
2018-Jul-16 21:54N 48°39' W 123°24'0 0.0
2018-Jul-16 20:32N 48°39' W 123°24'0 0.0
2018-Jul-16 20:24N 48°39' W 123°24'9 6.9
2018-Jul-16 19:07N 48°37' W 123°10'2 0.9
2018-Jul-16 16:57N 48°35' W 123°10'0 0.0
2018-Jul-16 14:12N 48°35' W 123°10'0 0.0
2018-Jul-16 13:57N 48°35' W 123°10'0 0.0
2018-Jul-16 11:32N 48°35' W 123°10'0 0.0
2018-Jul-16 08:17N 48°35' W 123°10'0 0.0
2018-Jul-16 06:22N 48°35' W 123°10'0 0.0
2018-Jul-16 06:00N 48°35' W 123°10'0 0.0
2018-Jul-15 23:57N 48°35' W 123°10'0 0.1
2018-Jul-15 23:10N 48°35' W 123°10'0 0.0
2018-Jul-15 20:02N 48°35' W 123°10'0 0.0
2018-Jul-15 19:52N 48°35' W 123°10'0 0.0
2018-Jul-15 19:21N 48°35' W 123°10'0 0.0
2018-Jul-15 18:59N 48°35' W 123°10'0 0.0
2018-Jul-15 18:12N 48°35' W 123°10'0 0.1
2018-Jul-15 17:52N 48°35' W 123°10'0 0.0
2018-Jul-15 16:47N 48°35' W 123°10'0 0.0
2018-Jul-15 16:02N 48°35' W 123°10'0 0.0
2018-Jul-15 04:46N 48°35' W 123°10'0 0.3
2018-Jul-15 04:29N 48°35' W 123°10'0 0.5
2018-Jul-15 03:58N 48°36' W 123°10'1 2.0
2018-Jul-15 03:29N 48°37' W 123°09'0 0.1
2018-Jul-15 02:19N 48°37' W 123°09'0 0.0
2018-Jul-15 01:59N 48°37' W 123°09'0 0.0
2018-Jul-15 01:28N 48°37' W 123°09'0 0.3
2018-Jul-15 00:58N 48°37' W 123°09'0 0.0
2018-Jul-15 00:28N 48°37' W 123°09'0 0.3
2018-Jul-15 00:00N 48°37' W 123°09'1 2.2
2018-Jul-14 23:29N 48°35' W 123°10'0 0.2
2018-Jul-14 22:58N 48°35' W 123°10'0 0.5
2018-Jul-14 22:24N 48°35' W 123°10'0 0.7
2018-Jul-14 21:59N 48°36' W 123°10'0 0.6
2018-Jul-14 21:28N 48°35' W 123°10'0 0.0
2018-Jul-14 20:58N 48°35' W 123°10'0 0.2
2018-Jul-14 20:27N 48°35' W 123°10'0 0.0
2018-Jul-14 19:58N 48°35' W 123°10'0 0.2
2018-Jul-14 19:29N 48°35' W 123°10'0 0.2
2018-Jul-14 18:59N 48°35' W 123°10'0 0.2
2018-Jul-14 18:29N 48°35' W 123°10'0 0.2
2018-Jul-14 17:59N 48°35' W 123°10'0 0.0
2018-Jul-14 17:28N 48°35' W 123°10'0 0.0
2018-Jul-14 16:58N 48°35' W 123°10'0 0.2
2018-Jul-14 16:30N 48°35' W 123°10'3 6.5
2018-Jul-14 16:00N 48°32' W 123°10'1814.0
2018-Jul-14 14:44N 48°17' W 122°55'314.3
2018-Jul-14 14:30N 48°15' W 122°52'9 9.0
2018-Jul-14 13:29N 48°07' W 122°45'0 0.2
2018-Jul-14 12:57N 48°07' W 122°45'0 0.5
2018-Jul-14 12:29N 48°07' W 122°46'0 0.1
2018-Jul-14 11:59N 48°07' W 122°46'0 0.3
2018-Jul-14 11:21N 48°07' W 122°45'0 0.6
2018-Jul-14 10:58N 48°07' W 122°46'0 0.4
2018-Jul-14 10:28N 48°07' W 122°45'0 0.2
2018-Jul-14 09:59N 48°07' W 122°45'0 0.0
2018-Jul-14 09:26N 48°07' W 122°45'0 0.3
2018-Jul-14 08:57N 48°07' W 122°45'0 0.2
2018-Jul-14 08:28N 48°07' W 122°45'0 0.1
2018-Jul-14 07:58N 48°07' W 122°45'0 0.3
2018-Jul-14 07:29N 48°07' W 122°45'0 0.3
2018-Jul-14 06:59N 48°07' W 122°45'0 0.4
2018-Jul-14 06:29N 48°07' W 122°46'0 0.5
2018-Jul-14 05:59N 48°07' W 122°45'0 0.3
2018-Jul-14 05:30N 48°07' W 122°45'0 0.0
2018-Jul-14 04:59N 48°07' W 122°45'0 0.3
2018-Jul-14 04:29N 48°07' W 122°45'0 0.2
2018-Jul-14 03:59N 48°07' W 122°45'  
Track history (hours):
 
Tides and Currents Weather Stations Pressure Air Temp Water Temp Dewpoint Dewpoint Depression Visibility Wind Speed Wind Dir Waves Ship Positions

Pearl

Last reported at 2018-Jul-19 01:17 UTC. Time now 2018-Jul-23 09:53 UTC.
Position N 48°51' W 123°30'.

Length 38 m; draft 3.5 m.

Type: Pleasure craft. MMSI: 367639910.

Date/timePositionNaut miles runAvg speedWind from/ knotsBaromVisibWave heightAir tempDewpointWater temp
2018-Jul-19 01:17N 48°51' W 123°30'0 0.1
2018-Jul-18 23:27N 48°51' W 123°30'0 0.1
2018-Jul-18 22:59N 48°51' W 123°30'0 0.3
2018-Jul-18 22:29N 48°51' W 123°30'0 0.0
2018-Jul-18 20:07N 48°51' W 123°30'0 0.0
2018-Jul-18 09:27N 48°51' W 123°30'0 0.0
2018-Jul-18 05:02N 48°51' W 123°30'0 0.0
2018-Jul-18 04:53N 48°51' W 123°30'0 0.0
2018-Jul-18 03:32N 48°51' W 123°30'0 0.0
2018-Jul-18 01:37N 48°51' W 123°30'0 0.1
2018-Jul-18 01:27N 48°51' W 123°30'0 0.2
2018-Jul-18 00:57N 48°51' W 123°30'0 0.0
2018-Jul-18 00:29N 48°51' W 123°30'0 0.1
2018-Jul-17 23:17N 48°51' W 123°30'0 0.1
2018-Jul-17 22:47N 48°51' W 123°30'0 0.1
2018-Jul-17 22:16N 48°51' W 123°30'0 0.0
2018-Jul-17 21:47N 48°51' W 123°30'0 0.1
2018-Jul-17 20:22N 48°51' W 123°30'5 6.2
2018-Jul-17 19:32N 48°48' W 123°24'0 2.6
2018-Jul-17 19:30N 48°48' W 123°24'9 6.1
2018-Jul-17 18:02N 48°39' W 123°24'0 0.0
2018-Jul-17 17:51N 48°39' W 123°24'0 0.1
2018-Jul-17 17:24N 48°39' W 123°24'0 0.4
2018-Jul-17 16:52N 48°39' W 123°24'0 0.4
2018-Jul-17 16:19N 48°39' W 123°24'0 0.0
2018-Jul-17 15:21N 48°39' W 123°24'0 0.0
2018-Jul-17 14:57N 48°39' W 123°24'0 0.0
2018-Jul-17 09:17N 48°39' W 123°24'0 0.0
2018-Jul-17 08:57N 48°39' W 123°24'0 0.0
2018-Jul-17 05:02N 48°39' W 123°24'0 0.0
2018-Jul-17 04:52N 48°39' W 123°24'0 0.0
2018-Jul-17 03:23N 48°39' W 123°24'0 0.3
2018-Jul-17 03:00N 48°39' W 123°24'0 0.0
2018-Jul-17 02:28N 48°39' W 123°24'0 0.0
2018-Jul-17 00:12N 48°39' W 123°24'0 0.1
2018-Jul-16 22:49N 48°39' W 123°24'0 0.0
2018-Jul-16 22:21N 48°39' W 123°24'0 0.3
2018-Jul-16 21:54N 48°39' W 123°24'0 0.0
2018-Jul-16 20:32N 48°39' W 123°24'0 0.0
2018-Jul-16 20:24N 48°39' W 123°24'9 6.9
2018-Jul-16 19:07N 48°37' W 123°10'2 0.9
2018-Jul-16 16:57N 48°35' W 123°10'0 0.0
2018-Jul-16 14:12N 48°35' W 123°10'0 0.0
2018-Jul-16 13:57N 48°35' W 123°10'0 0.0
2018-Jul-16 11:32N 48°35' W 123°10'0 0.0
2018-Jul-16 08:17N 48°35' W 123°10'0 0.0
2018-Jul-16 06:22N 48°35' W 123°10'0 0.0
2018-Jul-16 06:00N 48°35' W 123°10'0 0.0
2018-Jul-15 23:57N 48°35' W 123°10'0 0.1
2018-Jul-15 23:10N 48°35' W 123°10'0 0.0
2018-Jul-15 20:02N 48°35' W 123°10'0 0.0
2018-Jul-15 19:52N 48°35' W 123°10'0 0.0
2018-Jul-15 19:21N 48°35' W 123°10'0 0.0
2018-Jul-15 18:59N 48°35' W 123°10'0 0.0
2018-Jul-15 18:12N 48°35' W 123°10'0 0.1
2018-Jul-15 17:52N 48°35' W 123°10'0 0.0
2018-Jul-15 16:47N 48°35' W 123°10'0 0.0
2018-Jul-15 16:02N 48°35' W 123°10'0 0.0
2018-Jul-15 04:46N 48°35' W 123°10'0 0.3
2018-Jul-15 04:29N 48°35' W 123°10'0 0.5
2018-Jul-15 03:58N 48°36' W 123°10'1 2.0
2018-Jul-15 03:29N 48°37' W 123°09'0 0.1
2018-Jul-15 02:19N 48°37' W 123°09'0 0.0
2018-Jul-15 01:59N 48°37' W 123°09'0 0.0
2018-Jul-15 01:28N 48°37' W 123°09'0 0.3
2018-Jul-15 00:58N 48°37' W 123°09'0 0.0
2018-Jul-15 00:28N 48°37' W 123°09'0 0.3
2018-Jul-15 00:00N 48°37' W 123°09'1 2.2
2018-Jul-14 23:29N 48°35' W 123°10'0 0.2
2018-Jul-14 22:58N 48°35' W 123°10'0 0.5
2018-Jul-14 22:24N 48°35' W 123°10'0 0.7
2018-Jul-14 21:59N 48°36' W 123°10'0 0.6
2018-Jul-14 21:28N 48°35' W 123°10'0 0.0
2018-Jul-14 20:58N 48°35' W 123°10'0 0.2
2018-Jul-14 20:27N 48°35' W 123°10'0 0.0
2018-Jul-14 19:58N 48°35' W 123°10'0 0.2
2018-Jul-14 19:29N 48°35' W 123°10'0 0.2
2018-Jul-14 18:59N 48°35' W 123°10'0 0.2
2018-Jul-14 18:29N 48°35' W 123°10'0 0.2
2018-Jul-14 17:59N 48°35' W 123°10'0 0.0
2018-Jul-14 17:28N 48°35' W 123°10'0 0.0
2018-Jul-14 16:58N 48°35' W 123°10'0 0.2
2018-Jul-14 16:30N 48°35' W 123°10'3 6.5
2018-Jul-14 16:00N 48°32' W 123°10'1814.0
2018-Jul-14 14:44N 48°17' W 122°55'314.3
2018-Jul-14 14:30N 48°15' W 122°52'9 9.0
2018-Jul-14 13:29N 48°07' W 122°45'0 0.2
2018-Jul-14 12:57N 48°07' W 122°45'0 0.5
2018-Jul-14 12:29N 48°07' W 122°46'0 0.1
2018-Jul-14 11:59N 48°07' W 122°46'0 0.3
2018-Jul-14 11:21N 48°07' W 122°45'0 0.6
2018-Jul-14 10:58N 48°07' W 122°46'0 0.4
2018-Jul-14 10:28N 48°07' W 122°45'0 0.2
2018-Jul-14 09:59N 48°07' W 122°45'0 0.0
2018-Jul-14 09:26N 48°07' W 122°45'0 0.3
2018-Jul-14 08:57N 48°07' W 122°45'0 0.2
2018-Jul-14 08:28N 48°07' W 122°45'0 0.1
2018-Jul-14 07:58N 48°07' W 122°45'0 0.3
2018-Jul-14 07:29N 48°07' W 122°45'0 0.3
2018-Jul-14 06:59N 48°07' W 122°45'0 0.4
2018-Jul-14 06:29N 48°07' W 122°46'0 0.5
2018-Jul-14 05:59N 48°07' W 122°45'0 0.3
2018-Jul-14 05:30N 48°07' W 122°45'0 0.0
2018-Jul-14 04:59N 48°07' W 122°45'0 0.3
2018-Jul-14 04:29N 48°07' W 122°45'0 0.2
2018-Jul-14 03:59N 48°07' W 122°45'  

Dump ship's entire track history